createdAt,value
2022-10-08T00:05:19.869Z,11.10
2022-10-08T00:11:23.361Z,11.20
2022-10-08T00:17:24.963Z,11.10
2022-10-08T00:23:26.552Z,11.10
2022-10-08T00:29:28.195Z,11.00
2022-10-08T00:35:29.840Z,11.00
2022-10-08T00:41:32.595Z,11.00
2022-10-08T00:47:35.069Z,10.90
2022-10-08T00:53:36.791Z,10.90
2022-10-08T00:59:38.927Z,10.90
2022-10-08T01:05:59.418Z,10.90
2022-10-08T01:12:01.253Z,10.90
2022-10-08T01:18:21.425Z,10.90
2022-10-08T01:24:56.847Z,10.80
2022-10-08T01:31:04.738Z,10.80
2022-10-08T01:37:08.284Z,10.80
2022-10-08T01:43:11.750Z,10.80
2022-10-08T01:49:17.353Z,10.90
2022-10-08T01:55:21.791Z,10.90
2022-10-08T02:01:34.875Z,10.80
2022-10-08T02:07:37.718Z,10.80
2022-10-08T02:13:40.046Z,10.80
2022-10-08T02:19:41.639Z,10.80
2022-10-08T02:25:50.541Z,10.90
2022-10-08T02:31:55.099Z,10.90
2022-10-08T02:38:06.418Z,10.90
2022-10-08T02:44:09.468Z,10.90
2022-10-08T02:50:12.557Z,10.90
2022-10-08T02:56:25.846Z,10.90
2022-10-08T03:02:37.908Z,10.90
2022-10-08T03:08:41.607Z,11.00
2022-10-08T03:14:45.950Z,11.00
2022-10-08T03:20:49.498Z,10.90
2022-10-08T03:26:52.382Z,11.00
2022-10-08T03:32:53.990Z,11.00
2022-10-08T03:38:55.741Z,11.00
2022-10-08T03:44:57.518Z,11.10
2022-10-08T03:51:00.705Z,11.20
2022-10-08T03:57:02.582Z,11.20
2022-10-08T04:03:04.296Z,11.30
2022-10-08T04:09:05.941Z,11.30
2022-10-08T04:15:08.567Z,11.40
2022-10-08T04:21:11.710Z,11.30
2022-10-08T04:27:13.372Z,11.30
2022-10-08T04:33:15.014Z,11.40
2022-10-08T04:39:16.693Z,11.30
2022-10-08T04:45:18.372Z,11.30
2022-10-08T04:51:20.602Z,11.30
2022-10-08T04:57:22.305Z,11.30
2022-10-08T05:03:23.992Z,11.30
2022-10-08T05:09:25.713Z,11.30
2022-10-08T05:15:27.356Z,11.20
2022-10-08T05:21:29.829Z,11.10
2022-10-08T05:27:31.507Z,11.10
2022-10-08T05:33:34.648Z,11.00
2022-10-08T05:39:36.403Z,11.00
2022-10-08T05:45:38.018Z,11.00
2022-10-08T05:51:39.653Z,10.90
2022-10-08T05:57:41.271Z,10.90
2022-10-08T06:03:43.109Z,10.90
2022-10-08T06:09:45.158Z,10.90
2022-10-08T06:16:13.281Z,11.00
2022-10-08T06:22:15.000Z,11.00
2022-10-08T06:28:16.808Z,10.90
2022-10-08T06:34:18.434Z,10.90
2022-10-08T06:40:20.122Z,10.90
2022-10-08T06:46:22.327Z,10.90
2022-10-08T06:52:24.105Z,10.90
2022-10-08T06:58:25.814Z,10.90
2022-10-08T07:04:27.373Z,11.00
2022-10-08T07:10:33.144Z,11.20
2022-10-08T07:16:35.560Z,11.20
2022-10-08T07:22:37.147Z,11.20
2022-10-08T07:28:40.164Z,11.30
2022-10-08T07:34:41.814Z,11.30
2022-10-08T07:40:43.392Z,11.30
2022-10-08T07:46:49.632Z,11.30
2022-10-08T07:52:51.207Z,11.40
2022-10-08T07:58:53.079Z,11.60
2022-10-08T08:04:54.692Z,11.70
2022-10-08T08:10:57.124Z,11.80
2022-10-08T08:16:58.975Z,11.80
2022-10-08T08:23:00.761Z,12.00
2022-10-08T08:29:04.940Z,12.00
2022-10-08T08:35:06.776Z,12.00
2022-10-08T08:41:16.419Z,11.90
2022-10-08T08:47:22.870Z,11.90
2022-10-08T08:53:24.685Z,12.00
2022-10-08T08:59:26.717Z,12.00
2022-10-08T09:05:31.174Z,12.00
2022-10-08T09:11:32.891Z,12.10
2022-10-08T09:17:36.365Z,12.40
2022-10-08T09:23:38.129Z,12.70
2022-10-08T09:29:39.757Z,12.90
2022-10-08T09:35:43.054Z,13.10
2022-10-08T09:41:45.606Z,12.90
2022-10-08T09:48:07.164Z,13.20
2022-10-08T09:54:12.620Z,13.50
2022-10-08T10:00:28.622Z,13.80
2022-10-08T10:06:34.863Z,14.30
2022-10-08T10:12:41.722Z,14.20
2022-10-08T10:18:49.478Z,14.40
2022-10-08T10:24:57.152Z,14.60
2022-10-08T10:31:01.773Z,14.80
2022-10-08T10:37:10.035Z,15.00
2022-10-08T10:43:20.874Z,14.80
2022-10-08T10:49:24.749Z,14.50
2022-10-08T10:55:29.373Z,15.00
2022-10-08T11:01:39.978Z,15.10
2022-10-08T11:08:07.855Z,15.20
2022-10-08T11:14:23.821Z,15.40
2022-10-08T11:20:39.710Z,14.80
2022-10-08T11:26:41.327Z,14.20
2022-10-08T11:32:45.160Z,14.50
2022-10-08T11:38:55.359Z,15.00
2022-10-08T11:45:26.809Z,15.40
2022-10-08T11:51:32.577Z,15.20
2022-10-08T11:58:05.747Z,14.50
2022-10-08T12:04:01.889Z,14.80
2022-10-08T12:10:06.527Z,15.10
2022-10-08T12:16:08.361Z,15.50
2022-10-08T12:22:17.527Z,15.80
2022-10-08T12:28:19.255Z,15.70
2022-10-08T12:34:22.771Z,15.70
2022-10-08T12:40:34.394Z,15.10
2022-10-08T12:46:36.033Z,15.00
2022-10-08T12:52:37.748Z,15.60
2022-10-08T12:58:39.388Z,15.50
2022-10-08T13:04:45.737Z,15.90
2022-10-08T13:10:47.308Z,15.80
2022-10-08T13:16:48.913Z,15.90
2022-10-08T13:22:50.890Z,15.90
2022-10-08T13:29:12.505Z,16.00
2022-10-08T13:35:22.094Z,16.10
2022-10-08T13:41:24.083Z,16.20
2022-10-08T13:47:26.382Z,16.50
2022-10-08T13:53:27.976Z,16.10
2022-10-08T13:59:30.849Z,15.60
2022-10-08T14:05:34.196Z,15.10
2022-10-08T14:11:37.523Z,14.70
2022-10-08T14:17:39.598Z,14.30
2022-10-08T14:23:41.214Z,14.00
2022-10-08T14:29:42.781Z,13.60
2022-10-08T14:35:44.408Z,13.40
2022-10-08T14:41:46.836Z,13.10
2022-10-08T14:47:48.632Z,13.20
2022-10-08T14:53:51.722Z,13.40
2022-10-08T14:59:53.342Z,13.50
2022-10-08T15:05:58.103Z,13.50
2022-10-08T15:11:59.750Z,13.60
2022-10-08T15:18:01.349Z,13.60
2022-10-08T15:24:03.055Z,13.60
2022-10-08T15:30:04.990Z,13.50
2022-10-08T15:36:21.827Z,13.40
2022-10-08T15:42:24.475Z,13.40
2022-10-08T15:48:26.417Z,13.40
2022-10-08T15:54:28.111Z,13.40
2022-10-08T16:00:29.873Z,13.40
2022-10-08T16:06:33.495Z,13.40
2022-10-08T16:12:35.148Z,13.30
2022-10-08T16:18:36.881Z,13.20
2022-10-08T16:24:38.530Z,13.00
2022-10-08T16:30:40.230Z,13.00
2022-10-08T16:36:42.233Z,12.90
2022-10-08T16:42:44.327Z,12.80
2022-10-08T16:48:56.277Z,12.60
2022-10-08T16:54:57.977Z,12.40
2022-10-08T17:01:03.838Z,12.20
2022-10-08T17:07:07.408Z,12.20
2022-10-08T17:13:09.013Z,12.10
2022-10-08T17:19:10.920Z,12.00
2022-10-08T17:25:12.546Z,11.90
2022-10-08T17:31:15.727Z,11.80
2022-10-08T17:37:17.608Z,11.80
2022-10-08T17:43:19.271Z,11.80
2022-10-08T17:49:20.998Z,11.80
2022-10-08T17:55:22.601Z,11.80
2022-10-08T18:01:28.712Z,11.70
2022-10-08T18:07:30.430Z,11.60
2022-10-08T18:13:32.313Z,11.50
2022-10-08T18:19:33.995Z,11.50
2022-10-08T18:25:35.865Z,11.40
2022-10-08T18:31:38.824Z,11.40
2022-10-08T18:37:40.468Z,11.30
2022-10-08T18:43:42.170Z,11.20
2022-10-08T18:49:43.806Z,11.20
2022-10-08T18:55:49.472Z,11.20
2022-10-08T19:01:51.973Z,11.20
2022-10-08T19:07:54.726Z,11.30
2022-10-08T19:13:56.419Z,11.30
2022-10-08T19:19:58.001Z,11.20
2022-10-08T19:25:59.672Z,11.20
2022-10-08T19:32:01.577Z,11.10
2022-10-08T19:38:03.204Z,11.10
2022-10-08T19:44:05.117Z,10.90
2022-10-08T19:50:06.888Z,10.80
2022-10-08T19:56:09.907Z,10.80
2022-10-08T20:02:11.714Z,10.90
2022-10-08T20:08:13.494Z,10.90
2022-10-08T20:14:15.473Z,10.80
2022-10-08T20:20:32.487Z,10.70
2022-10-08T20:26:36.706Z,10.70
2022-10-08T20:32:38.408Z,10.80
2022-10-08T20:38:40.623Z,10.80
2022-10-08T20:44:42.232Z,10.90
2022-10-08T20:50:43.829Z,10.70
2022-10-08T20:56:45.464Z,10.70
2022-10-08T21:02:47.416Z,10.70
2022-10-08T21:08:50.107Z,10.70
2022-10-08T21:14:51.837Z,10.60
2022-10-08T21:20:53.694Z,10.60
2022-10-08T21:26:55.305Z,10.50
2022-10-08T21:32:57.228Z,10.50
2022-10-08T21:38:59.310Z,10.50
2022-10-08T21:45:00.945Z,10.50
2022-10-08T21:51:04.122Z,10.50
2022-10-08T21:57:05.944Z,10.40
2022-10-08T22:03:07.602Z,10.40
2022-10-08T22:09:11.324Z,10.40
2022-10-08T22:15:12.939Z,10.50
2022-10-08T22:21:15.743Z,10.40
2022-10-08T22:27:17.331Z,10.40
2022-10-08T22:33:19.413Z,10.40
2022-10-08T22:39:21.227Z,10.60
2022-10-08T22:45:23.695Z,10.70
2022-10-08T22:51:25.593Z,10.80
2022-10-08T22:57:27.186Z,10.70
2022-10-08T23:03:29.268Z,10.70
2022-10-08T23:09:30.915Z,10.10
2022-10-08T23:15:32.550Z,9.80
2022-10-08T23:21:36.420Z,9.70
2022-10-08T23:27:38.066Z,9.60
2022-10-08T23:33:40.621Z,9.60
2022-10-08T23:39:42.319Z,9.60
2022-10-08T23:45:44.530Z,9.50
2022-10-08T23:51:46.388Z,9.60
2022-10-08T23:57:48.030Z,9.60
